METAR Data
IDs: Format: Raw Decoded Include TAF

Data at: 0230 UTC 24 Sep 2018

KHCD 240215Z AUTO 12007KT 10SM CLR 16/12 A2992 RMK AO2 T01570121
KHCD 240155Z AUTO 11005KT 10SM CLR 17/12 A2991 RMK AO2 T01650121
KHCD 240135Z AUTO 12004KT 10SM CLR 18/12 A2991 RMK AO2 T01800120
KHCD 240115Z AUTO 12007KT 10SM CLR 18/12 A2990 RMK AO2 T01810122
KHCD 240055Z AUTO 12006KT 10SM CLR 18/12 A2990 RMK AO2 T01820122
KHCD 240035Z AUTO 12006KT 10SM CLR 19/12 A2990 RMK AO2 T01900122
KHCD 240015Z AUTO 12007KT 10SM CLR 20/12 A2990 RMK AO2 T02000121
KHCD 232355Z AUTO 13006KT 10SM CLR 21/12 A2990 RMK AO2 T02140120 10251 20213
KHCD 232335Z AUTO 13008KT 10SM CLR 22/12 A2990 RMK AO2 T02230121
KHCD 232315Z AUTO 14008G14KT 10SM CLR 24/11 A2990 RMK AO2 T02400109
KHCD 232255Z AUTO 14011G18KT 10SM CLR 24/11 A2990 RMK AO2 T02420108
KHCD 232235Z AUTO 14008G16KT 10SM CLR 25/11 A2990 RMK AO2 T02460105
KHCD 232215Z AUTO 13016G21KT 10SM CLR 25/11 A2990 RMK AO2 T02470110
KHCD 232155Z AUTO 14010G19KT 10SM CLR 25/11 A2990 RMK AO2 T02480113
KHCD 232135Z AUTO 13012G21KT 10SM CLR 25/11 A2991 RMK AO2 T02500114
KHCD 232115Z AUTO 14010G20KT 10SM CLR 25/11 A2991 RMK AO2 T02490112
KHCD 232055Z AUTO 14009G21KT 10SM CLR 25/12 A2992 RMK AO2 T02450120
KHCD 232036Z AUTO 14010G20KT 10SM CLR 25/12 A2992 RMK AO2 T02460119
KHCD 232015Z AUTO 14010G17KT 10SM CLR 25/13 A2993 RMK AO2 T02460131
KHCD 231955Z AUTO 15008G20KT 10SM CLR 24/13 A2994 RMK AO2 T02430130
KHCD 231935Z AUTO 14008G17KT 10SM CLR 24/14 A2996 RMK AO2 T02400136
KHCD 231915Z AUTO 13015G21KT 10SM CLR 24/13 A2996 RMK AO2 T02380133
KHCD 231855Z AUTO 15009G16KT 10SM CLR 24/13 A2997 RMK AO2 T02360131
KHCD 231835Z AUTO 13013G17KT 10SM CLR 23/13 A2997 RMK AO2 T02320130
KHCD 231815Z AUTO 13010G19KT 10SM CLR 23/13 A2998 RMK AO2 T02300127
KHCD 231755Z AUTO 14008G15KT 10SM CLR 23/13 A2999 RMK AO2 T02250126 10225 20100
KHCD 231735Z AUTO 14008KT 10SM CLR 22/13 A2999 RMK AO2 T02230127
KHCD 231715Z AUTO 14006KT 10SM CLR 22/13 A3001 RMK AO2 T02160125
KHCD 231655Z AUTO 13008KT 10SM CLR 21/12 A3002 RMK AO2 T02080122
KHCD 231635Z AUTO 16007KT 10SM CLR 20/12 A3002 RMK AO2 T02000118
KHCD 231615Z AUTO 16005KT 10SM CLR 19/12 A3003 RMK AO2 T01940116
KHCD 231555Z AUTO 16007KT 10SM CLR 19/12 A3002 RMK AO2 T01880115
KHCD 231535Z AUTO 16007KT 10SM CLR 18/11 A3003 RMK AO2 T01760110
KHCD 231515Z AUTO 14003KT 10SM CLR 17/11 A3003 RMK AO2 T01710111
KHCD 231455Z AUTO 16007KT 10SM CLR 16/11 A3003 RMK AO2 T01610109
KHCD 231435Z AUTO 16006KT 10SM CLR 15/11 A3002 RMK AO2 T01510110
KHCD 231415Z AUTO 15005KT 10SM CLR 14/11 A3002 RMK AO2 T01400107
KHCD 231355Z AUTO 15004KT 10SM CLR 13/11 A3002 RMK AO2 T01310105
KHCD 231335Z AUTO 15003KT 10SM CLR 12/10 A3002 RMK AO2 T01220103
KHCD 231315Z AUTO 15004KT 10SM CLR 12/10 A3002 RMK AO2 T01150100
KHCD 231255Z AUTO 12004KT 10SM CLR 11/10 A3002 RMK AO2 T01050096
KHCD 231235Z AUTO 12004KT 10SM CLR 10/09 A3002 RMK AO2 T01020092
KHCD 231215Z AUTO 13004KT 10SM CLR 11/10 A3003 RMK AO2 T01100095
KHCD 231155Z AUTO 13004KT 10SM CLR 11/10 A3002 RMK AO2 T01070095 10126 20093
KHCD 231135Z AUTO 13004KT 10SM CLR 11/09 A3003 RMK AO2 T01050093
KHCD 231115Z AUTO 13003KT 10SM CLR 11/10 A3003 RMK AO2 T01060095
KHCD 231055Z AUTO 13003KT 10SM CLR 11/10 A3002 RMK AO2 T01050095
KHCD 231035Z AUTO 13004KT 10SM CLR 10/09 A3002 RMK AO2 T01010092
KHCD 231015Z AUTO 13003KT 10SM CLR 10/09 A3002 RMK AO2 T00970091
KHCD 230955Z AUTO 12004KT 10SM CLR 10/09 A3002 RMK AO2 T00950089
KHCD 230935Z AUTO 13004KT 10SM CLR 10/09 A3002 RMK AO2 T00960090
KHCD 230915Z AUTO 13003KT 10SM CLR 10/09 A3003 RMK AO2 T00950089
KHCD 230855Z AUTO 12004KT 10SM CLR 10/09 A3003 RMK AO2 T00950087
KHCD 230835Z AUTO 12004KT 10SM CLR 10/09 A3003 RMK AO2 T00990090
KHCD 230815Z AUTO 12004KT 10SM CLR 10/09 A3004 RMK AO2 T01010090
KHCD 230755Z AUTO 12004KT 10SM CLR 10/09 A3004 RMK AO2 T01020090
KHCD 230735Z AUTO 12004KT 10SM CLR 11/09 A3004 RMK AO2 T01050090
KHCD 230715Z AUTO 12004KT 10SM CLR 11/09 A3004 RMK AO2 T01100090
KHCD 230655Z AUTO 13003KT 10SM CLR 12/09 A3004 RMK AO2 T01200093
KHCD 230635Z AUTO 15003KT 10SM CLR 12/09 A3004 RMK AO2 T01210092
KHCD 230615Z AUTO 14003KT 10SM CLR 12/09 A3005 RMK AO2 T01240092
KHCD 230555Z AUTO 16004KT 10SM CLR 13/09 A3005 RMK AO2 T01260092 10174 20126 402010039
KHCD 230535Z AUTO 16005KT 10SM CLR 13/09 A3005 RMK AO2 T01270092
KHCD 230515Z AUTO 16004KT 10SM CLR 13/09 A3005 RMK AO2 T01300092
KHCD 230455Z AUTO 15005KT 10SM CLR 13/09 A3006 RMK AO2 T01340093
KHCD 230435Z AUTO 16005KT 10SM CLR 14/09 A3006 RMK AO2 T01360092
KHCD 230415Z AUTO 17005KT 10SM CLR 14/09 A3005 RMK AO2 T01380093
KHCD 230355Z AUTO 17006KT 10SM CLR 14/10 A3005 RMK AO2 T01400095
KHCD 230335Z AUTO 17004KT 10SM SCT090 14/09 A3005 RMK AO2 T01400094
KHCD 230315Z AUTO 15003KT 10SM SCT090 14/10 A3005 RMK AO2 T01380095
KHCD 230255Z AUTO 16004KT 10SM CLR 14/10 A3005 RMK AO2 T01400095
KHCD 230235Z AUTO 16005KT 10SM CLR 14/09 A3005 RMK AO2 T01410093
KHCD 230215Z AUTO 15004KT 10SM CLR 14/09 A3005 RMK AO2 T01430093
KHCD 230155Z AUTO 00000KT 10SM CLR 15/09 A3005 RMK AO2 T01480094
KHCD 230135Z AUTO 00000KT 10SM SCT100 15/10 A3004 RMK AO2 T01510095
KHCD 230115Z AUTO 15004KT 10SM BKN100 16/10 A3004 RMK AO2 T01560095
KHCD 230055Z AUTO 16003KT 10SM SCT100 16/10 A3004 RMK AO2 T01560095
KHCD 230035Z AUTO 00000KT 10SM CLR 16/09 A3004 RMK AO2 T01620093
KHCD 230015Z AUTO 15003KT 10SM CLR 17/09 A3004 RMK AO2 T01670092
KHCD 222355Z AUTO 16004KT 10SM CLR 18/09 A3004 RMK AO2 T01770091 10201 20163
KHCD 222335Z AUTO 15006KT 10SM CLR 19/09 A3003 RMK AO2 T01850090
KHCD 222315Z AUTO 15008KT 10SM CLR 19/09 A3004 RMK AO2 T01920090
KHCD 222255Z AUTO 15006KT 10SM CLR 20/09 A3005 RMK AO2 T01960093
KHCD 222235Z AUTO 16008KT 10SM CLR 20/09 A3006 RMK AO2 T01980089
KHCD 222215Z AUTO 16010G16KT 10SM CLR 20/09 A3006 RMK AO2 T02000085
KHCD 222155Z AUTO 17009G16KT 10SM CLR 20/09 A3007 RMK AO2 T02000087
KHCD 222135Z AUTO 17009G17KT 10SM CLR 20/09 A3008 RMK AO2 T01980085
KHCD 222115Z AUTO 16009G14KT 140V210 10SM CLR 20/09 A3009 RMK AO2 T01990093
KHCD 222055Z AUTO 15008G15KT 10SM CLR 20/09 A3009 RMK AO2 T01960090
KHCD 222035Z AUTO 16006KT 10SM CLR 19/09 A3010 RMK AO2 T01930091
KHCD 222015Z AUTO 15010G15KT 120V180 10SM CLR 19/09 A3011 RMK AO2 T01870087
KHCD 221955Z AUTO 16009G15KT 10SM CLR 19/09 A3013 RMK AO2 T01860087
KHCD 221935Z AUTO 16011G14KT 10SM CLR 18/09 A3014 RMK AO2 T01830087
KHCD 221915Z AUTO 15010G16KT 10SM CLR 18/08 A3015 RMK AO2 T01790081
KHCD 221855Z AUTO 16008G16KT 10SM CLR 17/08 A3015 RMK AO2 T01710079
KHCD 221835Z AUTO 15007KT 130V190 10SM CLR 17/08 A3017 RMK AO2 T01700081
KHCD 221815Z AUTO 16009G16KT 10SM CLR 17/08 A3018 RMK AO2 T01650076
KHCD 221755Z AUTO 16007G16KT 10SM CLR 16/08 A3019 RMK AO2 T01610078 10161 20068
KHCD 221735Z AUTO 16009G14KT 10SM CLR 16/07 A3021 RMK AO2 T01590074
KHCD 221715Z AUTO 17008KT 140V200 10SM CLR 15/07 A3022 RMK AO2 T01510070
KHCD 221655Z AUTO 16008G14KT 10SM CLR 15/07 A3023 RMK AO2 T01480068
KHCD 221635Z AUTO 16008G14KT 10SM CLR 14/07 A3024 RMK AO2 T01440067
KHCD 221615Z AUTO 16011G16KT 10SM CLR 14/06 A3025 RMK AO2 T01370058
KHCD 221555Z AUTO 16009G16KT 10SM CLR 13/06 A3025 RMK AO2 T01330057
KHCD 221535Z AUTO 17010G14KT 10SM CLR 13/05 A3027 RMK AO2 T01280050
KHCD 221515Z AUTO 18012G18KT 10SM CLR 12/05 A3027 RMK AO2 T01230051
KHCD 221455Z AUTO 16010G14KT 10SM CLR 12/06 A3028 RMK AO2 T01170057
KHCD 221435Z AUTO 17008KT 10SM CLR 11/07 A3028 RMK AO2 T01130067